createdAt,value
2023-02-24T00:02:04.414Z,11.90
2023-02-24T00:04:35.239Z,11.90
2023-02-24T00:07:03.000Z,11.90
2023-02-24T00:09:31.407Z,12.00
2023-02-24T00:12:05.836Z,11.90
2023-02-24T00:14:36.202Z,12.00
2023-02-24T00:17:03.905Z,12.00
2023-02-24T00:19:32.632Z,12.00
2023-02-24T00:22:01.582Z,12.00
2023-02-24T00:24:29.904Z,12.00
2023-02-24T00:27:02.119Z,12.00
2023-02-24T00:29:30.471Z,12.00
2023-02-24T00:32:00.801Z,12.00
2023-02-24T00:34:35.367Z,12.00
2023-02-24T00:37:03.213Z,12.00
2023-02-24T00:39:30.672Z,12.00
2023-02-24T00:42:04.653Z,12.00
2023-02-24T00:44:34.864Z,12.00
2023-02-24T00:47:04.834Z,12.00
2023-02-24T00:49:35.956Z,12.00
2023-02-24T00:52:08.152Z,12.00
2023-02-24T00:54:36.559Z,12.00
2023-02-24T00:57:04.139Z,12.00
2023-02-24T00:59:31.461Z,12.00
2023-02-24T01:01:58.826Z,12.00
2023-02-24T01:04:29.268Z,12.00
2023-02-24T01:07:00.137Z,12.00
2023-02-24T01:09:30.706Z,11.90
2023-02-24T01:12:17.261Z,11.90
2023-02-24T01:14:47.651Z,11.90
2023-02-24T01:17:18.203Z,11.90
2023-02-24T01:19:48.995Z,11.90
2023-02-24T01:22:19.742Z,11.90
2023-02-24T01:24:47.720Z,11.90
2023-02-24T01:27:19.051Z,11.80
2023-02-24T01:29:47.566Z,11.80
2023-02-24T01:32:22.229Z,11.80
2023-02-24T01:34:52.174Z,11.90
2023-02-24T01:37:20.621Z,11.80
2023-02-24T01:39:48.754Z,11.80
2023-02-24T01:42:20.143Z,11.80
2023-02-24T01:44:47.833Z,11.90
2023-02-24T01:47:23.239Z,11.90
2023-02-24T01:49:53.915Z,11.80
2023-02-24T01:52:30.517Z,11.80
2023-02-24T01:55:07.545Z,11.80
2023-02-24T01:57:38.685Z,11.80
2023-02-24T02:00:12.263Z,11.80
2023-02-24T02:02:46.340Z,11.80
2023-02-24T02:05:14.750Z,11.80
2023-02-24T02:07:43.649Z,11.70
2023-02-24T02:10:13.292Z,11.70
2023-02-24T02:12:44.046Z,11.70
2023-02-24T02:15:20.449Z,11.70
2023-02-24T02:18:17.949Z,11.70
2023-02-24T02:20:56.298Z,11.70
2023-02-24T02:23:51.266Z,11.60
2023-02-24T02:26:44.836Z,11.60
2023-02-24T02:29:36.045Z,11.60
2023-02-24T02:32:25.223Z,11.60
2023-02-24T02:35:12.858Z,11.60
2023-02-24T02:37:59.010Z,11.60
2023-02-24T02:40:39.450Z,11.60
2023-02-24T02:43:33.182Z,11.60
2023-02-24T02:46:10.920Z,11.60
2023-02-24T02:48:43.846Z,11.60
2023-02-24T02:51:16.875Z,11.60
2023-02-24T02:54:06.150Z,11.50
2023-02-24T02:56:38.439Z,11.50
2023-02-24T02:59:08.293Z,11.50
2023-02-24T03:01:41.672Z,11.50
2023-02-24T03:04:12.941Z,11.50
2023-02-24T03:06:49.013Z,11.50
2023-02-24T03:09:31.053Z,11.40
2023-02-24T03:12:07.834Z,11.40
2023-02-24T03:14:39.707Z,11.50
2023-02-24T03:17:30.716Z,11.40
2023-02-24T03:20:12.604Z,11.40
2023-02-24T03:23:05.657Z,11.40
2023-02-24T03:25:46.684Z,11.40
2023-02-24T03:28:41.585Z,11.40
2023-02-24T03:31:18.130Z,11.40
2023-02-24T03:34:11.352Z,11.40
2023-02-24T03:36:39.104Z,11.40
2023-02-24T03:39:11.155Z,11.40
2023-02-24T03:41:56.132Z,11.40
2023-02-24T03:44:24.890Z,11.40
2023-02-24T03:46:53.024Z,11.40
2023-02-24T03:49:20.802Z,11.40
2023-02-24T03:52:21.442Z,11.40
2023-02-24T03:55:25.291Z,11.40
2023-02-24T03:58:17.925Z,11.40
2023-02-24T04:00:55.774Z,11.40
2023-02-24T04:03:34.178Z,11.40
2023-02-24T04:06:24.950Z,11.40
2023-02-24T04:09:01.464Z,11.40
2023-02-24T04:11:53.238Z,11.30
2023-02-24T04:14:39.076Z,11.30
2023-02-24T04:17:51.097Z,11.30
2023-02-24T04:20:23.071Z,11.30
2023-02-24T04:23:18.794Z,11.30
2023-02-24T04:25:51.231Z,11.30
2023-02-24T04:28:22.209Z,11.30
2023-02-24T04:30:53.944Z,11.30
2023-02-24T04:33:21.628Z,11.30
2023-02-24T04:35:51.140Z,11.30
2023-02-24T04:38:21.230Z,11.30
2023-02-24T04:40:49.891Z,11.30
2023-02-24T04:43:18.191Z,11.30
2023-02-24T04:45:45.886Z,11.30
2023-02-24T04:48:13.811Z,11.30
2023-02-24T04:50:43.774Z,11.30
2023-02-24T04:53:14.642Z,11.30
2023-02-24T04:55:49.968Z,11.30
2023-02-24T04:58:20.527Z,11.20
2023-02-24T05:00:52.840Z,11.20
2023-02-24T05:03:22.822Z,11.20
2023-02-24T05:05:56.614Z,11.20
2023-02-24T05:08:25.544Z,11.20
2023-02-24T05:10:53.982Z,11.20
2023-02-24T05:13:27.978Z,11.20
2023-02-24T05:15:57.921Z,11.20
2023-02-24T05:18:26.388Z,11.20
2023-02-24T05:21:15.828Z,11.20
2023-02-24T05:23:45.700Z,11.20
2023-02-24T05:26:16.853Z,11.20
2023-02-24T05:28:49.435Z,11.20
2023-02-24T05:31:20.461Z,11.20
2023-02-24T05:33:54.589Z,11.10
2023-02-24T05:36:22.390Z,11.10
2023-02-24T05:38:57.839Z,11.00
2023-02-24T05:41:32.573Z,11.00
2023-02-24T05:44:02.458Z,11.00
2023-02-24T05:46:32.860Z,10.90
2023-02-24T05:49:03.920Z,10.90
2023-02-24T05:51:35.339Z,10.90
2023-02-24T05:54:04.813Z,10.90
2023-02-24T05:56:34.088Z,10.90
2023-02-24T05:59:03.549Z,10.90
2023-02-24T06:01:33.406Z,10.90
2023-02-24T06:04:08.463Z,10.90
2023-02-24T06:06:36.777Z,10.90
2023-02-24T06:09:09.003Z,10.90
2023-02-24T06:11:38.536Z,10.90
2023-02-24T06:14:09.798Z,10.90
2023-02-24T06:16:43.375Z,10.90
2023-02-24T06:19:12.571Z,10.90
2023-02-24T06:21:42.218Z,10.90
2023-02-24T06:24:18.743Z,10.90
2023-02-24T06:26:46.537Z,10.80
2023-02-24T06:29:18.246Z,10.80
2023-02-24T06:31:45.877Z,10.80
2023-02-24T06:34:14.022Z,10.80
2023-02-24T06:36:44.798Z,10.80
2023-02-24T06:39:14.441Z,10.80
2023-02-24T06:41:42.550Z,10.80
2023-02-24T06:44:10.193Z,10.80
2023-02-24T06:46:37.863Z,10.80
2023-02-24T06:49:05.252Z,10.80
2023-02-24T06:51:33.274Z,10.80
2023-02-24T06:54:00.741Z,10.90
2023-02-24T06:56:29.565Z,10.90
2023-02-24T06:58:58.901Z,10.90
2023-02-24T07:01:28.928Z,10.90
2023-02-24T07:04:17.797Z,10.90
2023-02-24T07:06:50.319Z,11.00
2023-02-24T07:09:20.469Z,11.00
2023-02-24T07:11:52.201Z,11.00
2023-02-24T07:14:22.282Z,11.00
2023-02-24T07:16:54.464Z,11.00
2023-02-24T07:19:29.400Z,11.00
2023-02-24T07:22:01.950Z,11.00
2023-02-24T07:24:40.378Z,11.10
2023-02-24T07:27:23.301Z,11.10
2023-02-24T07:29:53.253Z,11.10
2023-02-24T07:32:22.365Z,11.10
2023-02-24T07:34:49.838Z,11.10
2023-02-24T07:37:17.270Z,11.10
2023-02-24T07:39:44.653Z,11.20
2023-02-24T07:42:15.453Z,11.20
2023-02-24T07:44:46.549Z,11.20
2023-02-24T07:47:15.666Z,11.20
2023-02-24T07:49:43.816Z,11.20
2023-02-24T07:52:11.485Z,11.20
2023-02-24T07:54:39.215Z,11.20
2023-02-24T07:57:13.181Z,11.30
2023-02-24T07:59:46.878Z,11.30
2023-02-24T08:02:15.265Z,11.30
2023-02-24T08:04:49.974Z,11.30
2023-02-24T08:07:24.952Z,11.30
2023-02-24T08:10:13.366Z,11.30
2023-02-24T08:12:44.565Z,11.40
2023-02-24T08:15:24.235Z,11.40
2023-02-24T08:17:53.966Z,11.40
2023-02-24T08:20:22.105Z,11.40
2023-02-24T08:22:53.874Z,11.40
2023-02-24T08:25:35.984Z,11.40
2023-02-24T08:28:09.460Z,11.50
2023-02-24T08:30:46.805Z,11.50
2023-02-24T08:33:20.512Z,11.50
2023-02-24T08:36:01.480Z,11.50
2023-02-24T08:38:42.270Z,11.50
2023-02-24T08:41:18.274Z,11.60
2023-02-24T08:43:47.358Z,11.60
2023-02-24T08:46:18.948Z,11.60
2023-02-24T08:48:50.010Z,11.60
2023-02-24T08:51:28.739Z,11.70
2023-02-24T08:53:59.102Z,11.70
2023-02-24T08:56:29.837Z,11.70
2023-02-24T08:59:05.544Z,11.80
2023-02-24T09:01:39.071Z,11.80
2023-02-24T09:04:09.662Z,11.80
2023-02-24T09:06:46.484Z,11.90
2023-02-24T09:09:22.898Z,11.90
2023-02-24T09:11:56.935Z,11.90
2023-02-24T09:14:39.348Z,11.90
2023-02-24T09:17:11.028Z,11.90
2023-02-24T09:19:51.510Z,11.90
2023-02-24T09:22:53.678Z,11.90
2023-02-24T09:25:21.963Z,11.90
2023-02-24T09:27:55.939Z,11.90
2023-02-24T09:30:38.520Z,11.90
2023-02-24T09:33:20.810Z,11.90
2023-02-24T09:36:13.376Z,11.90
2023-02-24T09:39:00.758Z,12.00
2023-02-24T09:41:54.536Z,11.90
2023-02-24T09:44:39.116Z,11.90
2023-02-24T09:47:39.653Z,12.00
2023-02-24T09:50:46.942Z,12.00
2023-02-24T09:53:17.598Z,12.00
2023-02-24T09:56:00.316Z,12.10
2023-02-24T09:58:43.938Z,12.10
2023-02-24T10:01:31.190Z,12.10
2023-02-24T10:04:22.877Z,12.20
2023-02-24T10:07:05.389Z,12.20
2023-02-24T10:09:35.394Z,12.20
2023-02-24T10:12:19.603Z,12.30
2023-02-24T10:15:16.397Z,12.20
2023-02-24T10:17:50.242Z,12.30
2023-02-24T10:20:39.395Z,12.30
2023-02-24T10:23:32.710Z,12.30
2023-02-24T10:26:07.072Z,12.30
2023-02-24T10:28:57.225Z,12.40
2023-02-24T10:31:42.827Z,12.40
2023-02-24T10:34:26.374Z,12.30
2023-02-24T10:36:57.434Z,12.30
2023-02-24T10:39:26.615Z,12.30
2023-02-24T10:42:19.637Z,12.20
2023-02-24T10:45:01.407Z,12.30
2023-02-24T10:47:31.322Z,12.20
2023-02-24T10:50:05.449Z,12.20
2023-02-24T10:52:37.396Z,12.20
2023-02-24T10:55:28.326Z,12.20
2023-02-24T10:58:15.885Z,12.30
2023-02-24T11:01:06.532Z,12.30
2023-02-24T11:03:43.474Z,12.40
2023-02-24T11:06:41.154Z,12.40
2023-02-24T11:09:20.355Z,12.50
2023-02-24T11:12:07.337Z,12.50
2023-02-24T11:14:58.482Z,12.60
2023-02-24T11:17:27.146Z,12.60
2023-02-24T11:20:02.558Z,12.70
2023-02-24T11:22:37.626Z,12.70
2023-02-24T11:25:23.094Z,12.70
2023-02-24T11:27:52.813Z,12.70
2023-02-24T11:31:02.093Z,12.70
2023-02-24T11:33:49.367Z,12.80
2023-02-24T11:36:27.818Z,12.90
2023-02-24T11:39:29.230Z,13.00
2023-02-24T11:42:01.214Z,13.00
2023-02-24T11:44:37.244Z,13.10
2023-02-24T11:47:17.141Z,13.10
2023-02-24T11:49:53.999Z,13.20
2023-02-24T11:52:30.283Z,13.30
2023-02-24T11:55:00.915Z,13.30
2023-02-24T11:57:37.695Z,13.30
2023-02-24T12:00:20.239Z,13.30
2023-02-24T12:03:04.024Z,13.40
2023-02-24T12:05:36.902Z,13.40
2023-02-24T12:08:09.995Z,13.40
2023-02-24T12:10:52.598Z,13.40
2023-02-24T12:13:32.262Z,13.40
2023-02-24T12:16:07.852Z,13.40
2023-02-24T12:18:46.600Z,13.40
2023-02-24T12:21:39.335Z,13.40
2023-02-24T12:24:13.778Z,13.40
2023-02-24T12:27:13.491Z,13.40
2023-02-24T12:30:06.446Z,13.40
2023-02-24T12:33:01.143Z,13.30
2023-02-24T12:35:44.429Z,13.20
2023-02-24T12:38:34.808Z,13.20
2023-02-24T12:41:32.100Z,13.10
2023-02-24T12:44:05.559Z,13.10
2023-02-24T12:46:37.706Z,13.10
2023-02-24T12:49:31.445Z,13.00
2023-02-24T12:52:20.613Z,13.00
2023-02-24T12:55:08.068Z,12.90
2023-02-24T12:57:39.305Z,12.90
2023-02-24T13:00:19.579Z,12.90
2023-02-24T13:03:22.374Z,12.80
2023-02-24T13:06:06.370Z,12.80
2023-02-24T13:08:50.751Z,12.70
2023-02-24T13:11:36.354Z,12.70
2023-02-24T13:14:34.894Z,12.70
2023-02-24T13:17:11.241Z,12.60
2023-02-24T13:19:40.319Z,12.60
2023-02-24T13:22:15.416Z,12.60
2023-02-24T13:24:58.446Z,12.60
2023-02-24T13:27:38.806Z,12.50
2023-02-24T13:30:14.429Z,12.60
2023-02-24T13:32:45.931Z,12.60
2023-02-24T13:35:16.400Z,12.60
2023-02-24T13:37:46.363Z,12.60
2023-02-24T13:40:23.203Z,12.60
2023-02-24T13:42:59.621Z,12.60
2023-02-24T13:45:36.149Z,12.60
2023-02-24T13:48:34.454Z,12.60
2023-02-24T13:51:31.147Z,12.60
2023-02-24T13:54:16.367Z,12.70
2023-02-24T13:57:10.314Z,12.70
2023-02-24T14:00:01.549Z,12.80
2023-02-24T14:02:44.023Z,12.90
2023-02-24T14:05:22.081Z,12.90
2023-02-24T14:07:51.669Z,12.90
2023-02-24T14:10:26.382Z,13.00
2023-02-24T14:13:14.595Z,13.00
2023-02-24T14:15:44.788Z,13.10
2023-02-24T14:18:25.662Z,13.10
2023-02-24T14:20:54.773Z,13.20
2023-02-24T14:23:26.310Z,13.10
2023-02-24T14:26:01.741Z,13.10
2023-02-24T14:28:39.672Z,13.10
2023-02-24T14:31:14.626Z,13.10
2023-02-24T14:33:44.494Z,13.10
2023-02-24T14:36:18.518Z,13.10
2023-02-24T14:38:46.135Z,13.10
2023-02-24T14:41:22.631Z,13.10
2023-02-24T14:43:50.870Z,13.10
2023-02-24T14:46:18.444Z,13.10
2023-02-24T14:48:51.841Z,13.10
2023-02-24T14:51:25.524Z,13.10
2023-02-24T14:53:56.769Z,13.10
2023-02-24T14:56:30.768Z,13.10
2023-02-24T14:59:05.414Z,13.00
2023-02-24T15:01:43.988Z,13.00
2023-02-24T15:04:15.808Z,12.90
2023-02-24T15:06:44.303Z,12.90
2023-02-24T15:09:25.335Z,12.80
2023-02-24T15:11:55.997Z,12.80
2023-02-24T15:14:30.989Z,12.80
2023-02-24T15:17:02.554Z,12.80
2023-02-24T15:19:47.149Z,12.70
2023-02-24T15:22:24.295Z,12.70
2023-02-24T15:24:55.954Z,12.70
2023-02-24T15:27:27.105Z,12.80
2023-02-24T15:30:26.722Z,12.70
2023-02-24T15:33:23.343Z,12.70
2023-02-24T15:35:54.680Z,12.70
2023-02-24T15:38:37.119Z,12.60
2023-02-24T15:41:06.401Z,12.60
2023-02-24T15:43:52.825Z,12.60
2023-02-24T15:46:38.103Z,12.50
2023-02-24T15:49:05.810Z,12.50
2023-02-24T15:51:47.340Z,12.40
2023-02-24T15:54:43.819Z,12.40
2023-02-24T15:57:14.866Z,12.30
2023-02-24T15:59:42.692Z,12.20
2023-02-24T16:02:19.808Z,12.20
2023-02-24T16:04:48.870Z,12.10
2023-02-24T16:07:21.691Z,12.10
2023-02-24T16:09:52.454Z,12.00
2023-02-24T16:12:23.938Z,12.00
2023-02-24T16:14:55.773Z,11.90
2023-02-24T16:17:39.113Z,11.90
2023-02-24T16:20:15.076Z,11.80
2023-02-24T16:22:42.824Z,11.70
2023-02-24T16:25:15.117Z,11.70
2023-02-24T16:27:42.921Z,11.60
2023-02-24T16:30:22.106Z,11.60
2023-02-24T16:32:50.616Z,11.50
2023-02-24T16:35:18.278Z,11.50
2023-02-24T16:37:47.401Z,11.40
2023-02-24T16:40:30.621Z,11.30
2023-02-24T16:42:58.085Z,11.30
2023-02-24T16:45:28.275Z,11.20
2023-02-24T16:48:02.171Z,11.20
2023-02-24T16:50:38.764Z,11.10
2023-02-24T16:53:07.814Z,11.10
2023-02-24T16:55:35.275Z,11.00
2023-02-24T16:58:02.748Z,11.00
2023-02-24T17:00:30.212Z,11.00
2023-02-24T17:02:57.868Z,10.90
2023-02-24T17:05:27.297Z,10.90
2023-02-24T17:07:57.069Z,10.80
2023-02-24T17:10:25.512Z,10.80
2023-02-24T17:12:53.146Z,10.80
2023-02-24T17:15:22.632Z,10.70
2023-02-24T17:17:50.367Z,10.70
2023-02-24T17:20:20.149Z,10.70
2023-02-24T17:22:47.757Z,10.60
2023-02-24T17:25:21.789Z,10.60
2023-02-24T17:27:49.298Z,10.60
2023-02-24T17:30:20.113Z,10.60
2023-02-24T17:32:47.514Z,10.60
2023-02-24T17:35:15.200Z,10.60
2023-02-24T17:37:42.799Z,10.60
2023-02-24T17:40:13.067Z,10.60
2023-02-24T17:42:40.871Z,10.60
2023-02-24T17:45:10.868Z,10.60
2023-02-24T17:47:39.064Z,10.60
2023-02-24T17:50:08.235Z,10.60
2023-02-24T17:52:37.035Z,10.60
2023-02-24T17:55:05.797Z,10.50
2023-02-24T17:57:35.928Z,10.50
2023-02-24T18:00:04.823Z,10.50
2023-02-24T18:02:39.781Z,10.50
2023-02-24T18:05:08.104Z,10.50
2023-02-24T18:07:35.703Z,10.40
2023-02-24T18:10:03.596Z,10.30
2023-02-24T18:12:31.331Z,10.30
2023-02-24T18:15:07.689Z,10.20
2023-02-24T18:17:37.422Z,10.10
2023-02-24T18:20:08.469Z,10.00
2023-02-24T18:22:36.055Z,10.00
2023-02-24T18:25:04.008Z,9.90
2023-02-24T18:27:31.413Z,9.80
2023-02-24T18:29:58.656Z,9.70
2023-02-24T18:32:26.523Z,9.60
2023-02-24T18:34:54.009Z,9.60
2023-02-24T18:37:22.091Z,9.40
2023-02-24T18:39:50.686Z,9.30
2023-02-24T18:42:18.358Z,9.20
2023-02-24T18:44:45.707Z,9.20
2023-02-24T18:47:13.249Z,9.10
2023-02-24T18:49:40.502Z,9.00
2023-02-24T18:52:07.964Z,8.90
2023-02-24T18:54:35.591Z,8.90
2023-02-24T18:57:02.976Z,8.80
2023-02-24T18:59:30.334Z,8.70
2023-02-24T19:01:57.737Z,8.70
2023-02-24T19:04:25.309Z,8.60
2023-02-24T19:06:52.583Z,8.60
2023-02-24T19:09:23.788Z,8.50
2023-02-24T19:11:52.075Z,8.50
2023-02-24T19:14:19.880Z,8.40
2023-02-24T19:16:47.309Z,8.40
2023-02-24T19:19:16.289Z,8.30
2023-02-24T19:21:48.280Z,8.30
2023-02-24T19:24:16.618Z,8.20
2023-02-24T19:26:45.753Z,8.20
2023-02-24T19:29:13.686Z,8.20
2023-02-24T19:31:41.373Z,8.10
2023-02-24T19:34:12.891Z,8.10
2023-02-24T19:36:41.220Z,8.00
2023-02-24T19:39:14.793Z,7.90
2023-02-24T19:41:42.831Z,7.90
2023-02-24T19:44:10.924Z,7.80
2023-02-24T19:46:39.020Z,7.70
2023-02-24T19:49:06.646Z,7.70
2023-02-24T19:51:34.040Z,7.70
2023-02-24T19:54:08.390Z,7.70
2023-02-24T19:56:36.797Z,7.60
2023-02-24T19:59:07.327Z,7.60
2023-02-24T20:01:34.825Z,7.50
2023-02-24T20:04:03.552Z,7.50
2023-02-24T20:06:35.672Z,7.50
2023-02-24T20:09:10.238Z,7.50
2023-02-24T20:11:43.569Z,7.40
2023-02-24T20:14:12.858Z,7.40
2023-02-24T20:16:42.043Z,7.40
2023-02-24T20:19:12.482Z,7.40
2023-02-24T20:21:40.868Z,7.30
2023-02-24T20:24:13.599Z,7.30
2023-02-24T20:26:46.133Z,7.30
2023-02-24T20:29:15.525Z,7.20
2023-02-24T20:31:43.294Z,7.20
2023-02-24T20:34:11.192Z,7.20
2023-02-24T20:36:38.643Z,7.20
2023-02-24T20:39:12.349Z,7.20
2023-02-24T20:41:40.523Z,7.10
2023-02-24T20:44:08.533Z,7.10
2023-02-24T20:46:36.472Z,7.10
2023-02-24T20:49:06.659Z,7.10
2023-02-24T20:51:37.046Z,7.00
2023-02-24T20:54:05.930Z,7.00
2023-02-24T20:56:36.340Z,7.00
2023-02-24T20:59:12.442Z,7.00
2023-02-24T21:01:40.241Z,7.00
2023-02-24T21:04:08.735Z,7.00
2023-02-24T21:06:37.163Z,7.00
2023-02-24T21:09:05.504Z,6.90
2023-02-24T21:11:33.481Z,6.90
2023-02-24T21:14:01.230Z,7.00
2023-02-24T21:16:28.838Z,7.00
2023-02-24T21:18:58.606Z,6.90
2023-02-24T21:21:26.685Z,6.90
2023-02-24T21:23:55.112Z,6.90
2023-02-24T21:26:26.670Z,6.90
2023-02-24T21:28:57.611Z,6.90
2023-02-24T21:31:26.710Z,6.90
2023-02-24T21:33:54.833Z,6.90
2023-02-24T21:36:26.182Z,6.80
2023-02-24T21:38:54.784Z,6.90
2023-02-24T21:41:23.718Z,6.80
2023-02-24T21:43:54.674Z,6.80
2023-02-24T21:46:24.433Z,6.80
2023-02-24T21:48:58.921Z,6.80
2023-02-24T21:51:27.814Z,6.80
2023-02-24T21:53:56.919Z,6.80
2023-02-24T21:56:27.403Z,6.80
2023-02-24T21:58:59.179Z,6.80
2023-02-24T22:01:35.439Z,6.80
2023-02-24T22:04:10.144Z,6.90
2023-02-24T22:06:39.522Z,6.80
2023-02-24T22:09:09.130Z,6.80
2023-02-24T22:11:39.593Z,6.80
2023-02-24T22:14:09.727Z,6.80
2023-02-24T22:16:37.209Z,6.80
2023-02-24T22:19:05.102Z,6.80
2023-02-24T22:21:33.029Z,6.80
2023-02-24T22:24:02.498Z,6.80
2023-02-24T22:26:31.827Z,6.80
2023-02-24T22:29:00.774Z,6.80
2023-02-24T22:31:31.265Z,6.80
2023-02-24T22:33:59.453Z,6.80
2023-02-24T22:36:30.849Z,6.80
2023-02-24T22:39:00.111Z,6.80
2023-02-24T22:41:31.335Z,6.80
2023-02-24T22:44:00.606Z,6.80
2023-02-24T22:46:33.409Z,6.90
2023-02-24T22:49:01.179Z,6.90
2023-02-24T22:51:29.172Z,6.90
2023-02-24T22:53:56.935Z,6.90
2023-02-24T22:56:26.418Z,6.80
2023-02-24T22:58:54.437Z,6.90
2023-02-24T23:01:28.132Z,6.90
2023-02-24T23:03:58.452Z,6.80
2023-02-24T23:06:26.390Z,6.80
2023-02-24T23:08:54.661Z,6.80
2023-02-24T23:11:30.240Z,6.80
2023-02-24T23:14:01.125Z,6.80
2023-02-24T23:16:31.790Z,6.80
2023-02-24T23:19:01.911Z,6.80
2023-02-24T23:21:38.100Z,6.80
2023-02-24T23:24:07.323Z,6.80
2023-02-24T23:26:38.164Z,6.80
2023-02-24T23:29:06.346Z,6.80
2023-02-24T23:31:34.308Z,6.80
2023-02-24T23:34:06.695Z,6.80
2023-02-24T23:36:35.957Z,6.70
2023-02-24T23:39:04.977Z,6.70
2023-02-24T23:41:34.682Z,6.70
2023-02-24T23:44:02.523Z,6.70
2023-02-24T23:46:31.634Z,6.70
2023-02-24T23:48:59.014Z,6.70
2023-02-24T23:51:35.713Z,6.70
2023-02-24T23:54:12.047Z,6.70
2023-02-24T23:56:39.371Z,6.70
2023-02-24T23:59:07.249Z,6.70
